| time (UTC) | temp C | wind direction | speed KPH | gust KPH | rain 1hr cm | rain 24hr cm | rain mn cm | humidity % | barometer mb |
| 20260507124541 | 10 | 297 | 4.8 | 17.7 | 0.00 | 1.63 | 0.51 | 81 | 1007.2 |
| 20260507123044 | 10 | 340 | 4.8 | 17.7 | 0.00 | 1.63 | 0.51 | 87 | 1007.1 |
| 20260507121538 | 8 | 330 | 4.8 | 14.5 | 0.00 | 1.63 | 0.51 | 91 | 1007.2 |
| 20260507120036 | 8 | 301 | 4.8 | 9.7 | 0.00 | 1.63 | 0.51 | 94 | 1006.8 |
| 20260507114536 | 8 | 323 | 4.8 | 9.7 | 0.00 | 1.63 | 0.51 | 96 | 1007.1 |
| 20260507113037 | 7 | 5 | 1.6 | 4.8 | 0.00 | 1.63 | 0.51 | 96 | 1007.2 |
| 20260507111552 | 8 | 0 | 0.0 | 4.8 | 0.00 | 1.63 | 0.51 | 96 | 1007.5 |
| 20260507110040 | 7 | 348 | 1.6 | 3.2 | 0.00 | 1.63 | 0.51 | 96 | 1007.1 |
| 20260507104536 | 7 | 26 | 1.6 | 4.8 | 0.00 | 1.63 | 0.51 | 96 | 1007.3 |
| 20260507103036 | 7 | 0 | 0.0 | 3.2 | 0.00 | 1.63 | 0.51 | 96 | 1007.4 |
| 20260507101534 | 7 | 0 | 0.0 | 4.8 | 0.00 | 1.63 | 0.51 | 96 | 1007.1 |
| 20260507100042 | 7 | 0 | 1.6 | 9.7 | 0.00 | 1.63 | 0.51 | 96 | 1006.6 |
| 20260507094542 | 7 | 327 | 3.2 | 8.0 | 0.00 | 1.63 | 0.51 | 96 | 1006.9 |
| 20260507093044 | 7 | 22 | 3.2 | 17.7 | 0.00 | 1.63 | 0.51 | 96 | 1006.3 |
| 20260507091538 | 7 | 325 | 3.2 | 14.5 | 0.00 | 1.63 | 0.51 | 97 | 1006.8 |
| 20260507090043 | 8 | 47 | 4.8 | 17.7 | 0.00 | 1.63 | 0.51 | 97 | 1006.7 |
| 20260507084543 | 8 | 345 | 3.2 | 14.5 | 0.00 | 1.63 | 0.51 | 97 | 1006.6 |
| 20260507083041 | 8 | 351 | 4.8 | 14.5 | 0.00 | 1.63 | 0.51 | 97 | 1006.5 |
| 20260507081540 | 8 | 0 | 3.2 | 9.7 | 0.00 | 1.63 | 0.51 | 97 | 1006.7 |
| 20260507080051 | 8 | 338 | 3.2 | 9.7 | 0.00 | 1.63 | 0.51 | 97 | 1006.2 |
| 20260507074536 | 9 | 301 | 3.2 | 14.5 | 0.00 | 1.63 | 0.51 | 97 | 1006.5 |
| 20260507073040 | 9 | 296 | 4.8 | 12.9 | 0.00 | 1.63 | 0.51 | 97 | 1006.1 |
| 20260507071539 | 9 | 30 | 1.6 | 6.4 | 0.00 | 1.63 | 0.51 | 97 | 1005.7 |
| 20260507070050 | 9 | 0 | 1.6 | 4.8 | 0.00 | 1.63 | 0.51 | 97 | 1005.4 |
| 20260507064540 | 9 | 331 | 0.0 | 8.0 | 0.00 | 1.63 | 0.51 | 97 | 1005.4 |
| 20260507063044 | 9 | 348 | 3.2 | 14.5 | 0.00 | 1.63 | 0.51 | 97 | 1005.3 |
| 20260507061535 | 10 | 340 | 3.2 | 12.9 | 0.00 | 1.63 | 0.51 | 97 | 1005.4 |
| 20260507060041 | 10 | 278 | 1.6 | 14.5 | 0.03 | 1.63 | 0.51 | 97 | 1005.4 |
| 20260507054542 | 10 | 345 | 6.4 | 19.3 | 0.13 | 1.63 | 0.51 | 97 | 1005.1 |
| 20260507053034 | 10 | 335 | 6.4 | 19.3 | 0.43 | 1.63 | 0.51 | 97 | 1005.3 |
| 20260507051535 | 10 | 313 | 4.8 | 17.7 | 0.48 | 1.63 | 0.51 | 97 | 1005.3 |
| 20260507050043 | 10 | 336 | 3.2 | 12.9 | 0.48 | 1.60 | 0.48 | 97 | 1005.2 |
| 20260507044543 | 11 | 311 | 4.8 | 16.1 | 0.38 | 1.47 | 0.36 | 97 | 1005.5 |
| 20260507043042 | 10 | 326 | 3.2 | 12.9 | 0.08 | 1.17 | 0.05 | 97 | 1005.3 |
| 20260507041551 | 10 | 188 | 3.2 | 11.3 | 0.05 | 1.14 | 0.03 | 97 | 1004.5 |
| 20260507040034 | 10 | 248 | 4.8 | 17.7 | 0.03 | 1.12 | 0.00 | 97 | 1004.7 |
| 20260507034536 | 10 | 205 | 9.7 | 20.9 | 0.00 | 1.09 | 1.09 | 97 | 1004.7 |
| 20260507033044 | 10 | 225 | 8.0 | 25.7 | 0.00 | 1.09 | 1.09 | 97 | 1004.9 |
| 20260507031541 | 10 | 169 | 6.4 | 24.1 | 0.00 | 1.09 | 1.09 | 97 | 1004.9 |
| 20260507030041 | 10 | 219 | 9.7 | 24.1 | 0.00 | 1.09 | 1.09 | 97 | 1005.0 |
| 20260507024539 | 10 | 231 | 9.7 | 24.1 | 0.00 | 1.09 | 1.09 | 97 | 1005.3 |
| 20260507023035 | 10 | 226 | 9.7 | 29.0 | 0.00 | 1.09 | 1.09 | 97 | 1005.4 |
| 20260507021550 | 10 | 214 | 9.7 | 27.4 | 0.00 | 1.09 | 1.09 | 97 | 1005.5 |
| 20260507020042 | 10 | 220 | 9.7 | 27.4 | 0.03 | 1.09 | 1.09 | 97 | 1005.7 |
| 20260507014554 | 10 | 172 | 6.4 | 25.7 | 0.05 | 1.09 | 1.09 | 97 | 1005.8 |
| 20260507013051 | 10 | 175 | 4.8 | 24.1 | 0.08 | 1.09 | 1.09 | 97 | 1006.0 |
| 20260507011541 | 9 | 201 | 8.0 | 25.7 | 0.08 | 1.09 | 1.09 | 96 | 1006.1 |
| 20260507010045 | 10 | 198 | 8.0 | 35.4 | 0.05 | 1.07 | 1.07 | 96 | 1006.2 |
| 20260507004544 | 9 | 221 | 9.7 | 29.0 | 0.03 | 1.04 | 1.04 | 96 | 1006.3 |
| 20260507003042 | 9 | 179 | 9.7 | 37.0 | 0.03 | 1.02 | 1.02 | 96 | 1006.4 |
| 20260507001554 | 10 | 198 | 12.9 | 27.4 | 0.05 | 1.02 | 1.02 | 96 | 1006.3 |
| 20260507000038 | 10 | 107 | 9.7 | 19.3 | 0.08 | 1.02 | 1.02 | 96 | 1006.5 |
| 20260506234535 | 10 | 157 | 9.7 | 30.6 | 0.15 | 1.02 | 1.02 | 96 | 1006.7 |
| 20260506233046 | 10 | 227 | 8.0 | 29.0 | 0.20 | 0.99 | 0.99 | 96 | 1006.8 |
| 20260506231547 | 10 | 188 | 9.7 | 37.0 | 0.30 | 0.97 | 0.97 | 95 | 1006.9 |
| 20260506230040 | 10 | 205 | 8.0 | 32.2 | 0.38 | 0.94 | 0.94 | 96 | 1006.9 |
| 20260506224540 | 10 | 217 | 9.7 | 27.4 | 0.48 | 0.86 | 0.86 | 95 | 1006.8 |
| 20260506223035 | 10 | 169 | 9.7 | 27.4 | 0.48 | 0.76 | 0.76 | 95 | 1007.1 |
| 20260506221535 | 10 | 172 | 9.7 | 25.7 | 0.46 | 0.66 | 0.66 | 95 | 1007.1 |
| 20260506220035 | 10 | 191 | 9.7 | 38.6 | 0.38 | 0.56 | 0.56 | 94 | 1007.4 |
| 20260506214542 | 11 | 300 | 8.0 | 27.4 | 0.23 | 0.38 | 0.38 | 95 | 1007.5 |
| 20260506213042 | 11 | 162 | 8.0 | 37.0 | 0.13 | 0.25 | 0.25 | 94 | 1007.7 |
| 20260506211543 | 11 | 181 | 8.0 | 27.4 | 0.10 | 0.20 | 0.20 | 94 | 1007.9 |
| 20260506210038 | 11 | 163 | 11.3 | 30.6 | 0.10 | 0.15 | 0.15 | 93 | 1007.9 |
| 20260506204542 | 11 | 170 | 4.8 | 22.5 | 0.13 | 0.15 | 0.15 | 93 | 1007.8 |
| 20260506203045 | 12 | 227 | 6.4 | 30.6 | 0.13 | 0.13 | 0.13 | 93 | 1007.9 |
| 20260506201540 | 12 | 215 | 9.7 | 30.6 | 0.10 | 0.10 | 0.10 | 92 | 1008.1 |
| 20260506200058 | 12 | 223 | 17.7 | 37.0 | 0.05 | 0.05 | 0.05 | 92 | 1008.0 |
| 20260506194535 | 12 | 202 | 9.7 | 32.2 | 0.03 | 0.03 | 0.03 | 91 | 1008.1 |
| 20260506193045 | 12 | 229 | 11.3 | 25.7 | 0.00 | 0.00 | 0.00 | 90 | 1008.0 |
| 20260506191546 | 11 | 304 | 11.3 | 38.6 | 0.00 | 0.00 | 0.00 | 88 | 1007.8 |
| 20260506190042 | 11 | 192 | 9.7 | 38.6 | 0.00 | 0.00 | 0.00 | 87 | 1007.9 |
| 20260506184541 | 12 | 149 | 8.0 | 25.7 | 0.00 | 0.00 | 0.00 | 87 | 1008.1 |
| 20260506183045 | 12 | 121 | 8.0 | 29.0 | 0.00 | 0.00 | 0.00 | 86 | 1008.2 |
| 20260506181544 | 12 | 171 | 9.7 | 33.8 | 0.00 | 0.00 | 0.00 | 86 | 1008.5 |
| 20260506180049 | 12 | 156 | 6.4 | 17.7 | 0.00 | 0.00 | 0.00 | 87 | 1008.8 |
| 20260506174542 | 12 | 219 | 6.4 | 24.1 | 0.00 | 0.00 | 0.00 | 86 | 1008.8 |
| 20260506173039 | 12 | 212 | 6.4 | 20.9 | 0.00 | 0.00 | 0.00 | 86 | 1009.1 |
| 20260506171549 | 12 | 161 | 8.0 | 35.4 | 0.00 | 0.00 | 0.00 | 85 | 1009.3 |
| 20260506170037 | 13 | 144 | 9.7 | 24.1 | 0.00 | 0.00 | 0.00 | 85 | 1009.6 |
| 20260506164542 | 13 | 228 | 11.3 | 24.1 | 0.00 | 0.00 | 0.00 | 85 | 1009.9 |
| 20260506163047 | 13 | 179 | 11.3 | 27.4 | 0.00 | 0.00 | 0.00 | 84 | 1010.0 |
| 20260506161552 | 13 | 217 | 6.4 | 25.7 | 0.00 | 0.00 | 0.00 | 86 | 1010.3 |
| 20260506160042 | 13 | 220 | 8.0 | 25.7 | 0.00 | 0.00 | 0.00 | 86 | 1010.4 |
| 20260506154541 | 13 | 196 | 11.3 | 24.1 | 0.00 | 0.00 | 0.00 | 85 | 1010.7 |
| 20260506153036 | 13 | 215 | 12.9 | 27.4 | 0.00 | 0.00 | 0.00 | 84 | 1010.5 |
| 20260506151536 | 13 | 215 | 11.3 | 25.7 | 0.00 | 0.00 | 0.00 | 85 | 1010.3 |
| 20260506150044 | 13 | 223 | 8.0 | 25.7 | 0.00 | 0.00 | 0.00 | 85 | 1010.1 |
| 20260506144540 | 13 | 200 | 8.0 | 25.7 | 0.00 | 0.00 | 0.00 | 86 | 1010.1 |
| 20260506143039 | 12 | 207 | 14.5 | 29.0 | 0.00 | 0.00 | 0.00 | 87 | 1010.6 |
| 20260506141533 | 12 | 236 | 12.9 | 30.6 | 0.00 | 0.00 | 0.00 | 87 | 1010.9 |
| 20260506140040 | 12 | 207 | 11.3 | 27.4 | 0.00 | 0.00 | 0.00 | 88 | 1010.7 |
| 20260506134609 | 12 | 184 | 8.0 | 24.1 | 0.00 | 0.00 | 0.00 | 89 | 1010.8 |
| 20260506133041 | 12 | 207 | 6.4 | 27.4 | 0.00 | 0.00 | 0.00 | 88 | 1010.7 |
| 20260506131555 | 12 | 171 | 11.3 | 30.6 | 0.00 | 0.00 | 0.00 | 88 | 1010.6 |
| 20260506130038 | 12 | 200 | 11.3 | 29.0 | 0.00 | 0.00 | 0.00 | 88 | 1010.5 |